createdAt,value
2018-02-03T00:00:42.209Z,4.25
2018-02-03T00:03:09.677Z,4.55
2018-02-03T00:05:37.086Z,4.82
2018-02-03T00:08:04.530Z,8.85
2018-02-03T00:10:31.952Z,3.47
2018-02-03T00:12:59.362Z,7.90
2018-02-03T00:15:26.782Z,3.72
2018-02-03T00:17:54.597Z,7.07
2018-02-03T00:20:22.015Z,4.50
2018-02-03T00:22:49.454Z,4.20
2018-02-03T00:25:17.262Z,5.18
2018-02-03T00:27:44.681Z,6.43
2018-02-03T00:30:12.091Z,4.25
2018-02-03T00:32:39.518Z,5.50
2018-02-03T00:35:06.930Z,3.28
2018-02-03T00:37:34.357Z,3.00
2018-02-03T00:40:01.761Z,3.87
2018-02-03T00:42:29.177Z,6.10
2018-02-03T00:44:56.584Z,4.18
2018-02-03T00:47:23.993Z,5.22
2018-02-03T00:49:51.434Z,4.65
2018-02-03T00:52:18.858Z,9.95
2018-02-03T00:54:46.261Z,5.60
2018-02-03T00:57:13.675Z,4.45
2018-02-03T00:59:41.089Z,4.93
2018-02-03T01:02:08.510Z,5.20
2018-02-03T01:04:35.918Z,4.40
2018-02-03T01:07:03.334Z,6.10
2018-02-03T01:09:30.759Z,3.53
2018-02-03T01:11:58.169Z,4.80
2018-02-03T01:14:25.981Z,6.55
2018-02-03T01:16:53.405Z,4.00
2018-02-03T01:19:20.811Z,5.10
2018-02-03T01:21:48.552Z,3.10
2018-02-03T01:24:15.946Z,3.65
2018-02-03T01:26:43.357Z,5.80
2018-02-03T01:29:10.847Z,4.00
2018-02-03T01:31:38.266Z,4.72
2018-02-03T01:34:05.691Z,4.78
2018-02-03T01:36:33.113Z,6.60
2018-02-03T01:39:00.522Z,4.60
2018-02-03T01:41:27.932Z,6.20
2018-02-03T01:43:55.349Z,5.68
2018-02-03T01:46:22.752Z,6.25
2018-02-03T01:48:50.166Z,5.78
2018-02-03T01:51:17.595Z,5.28
2018-02-03T01:53:44.997Z,5.18
2018-02-03T01:56:12.428Z,7.18
2018-02-03T01:58:39.841Z,4.18
2018-02-03T02:01:07.274Z,3.60
2018-02-03T02:03:34.687Z,5.05
2018-02-03T02:06:02.105Z,4.45
2018-02-03T02:08:29.526Z,4.65
2018-02-03T02:10:56.939Z,5.18
2018-02-03T02:13:24.353Z,8.27
2018-02-03T02:15:51.753Z,7.15
2018-02-03T02:18:19.165Z,4.90
2018-02-03T02:20:46.577Z,6.55
2018-02-03T02:23:13.990Z,5.95
2018-02-03T02:25:41.405Z,7.78
2018-02-03T02:28:08.818Z,7.68
2018-02-03T02:30:36.639Z,5.45
2018-02-03T02:33:04.065Z,3.87
2018-02-03T02:35:31.482Z,5.00
2018-02-03T02:37:58.896Z,3.72
2018-02-03T02:40:26.307Z,7.45
2018-02-03T02:42:54.117Z,8.02
2018-02-03T02:45:21.541Z,7.15
2018-02-03T02:47:48.957Z,4.95
2018-02-03T02:50:16.370Z,6.18
2018-02-03T02:52:43.780Z,7.22
2018-02-03T02:55:11.190Z,7.10
2018-02-03T02:57:38.609Z,11.93
2018-02-03T03:00:06.014Z,8.88
2018-02-03T03:02:33.430Z,7.25
2018-02-03T03:05:00.846Z,10.82
2018-02-03T03:07:28.254Z,5.18
2018-02-03T03:09:55.682Z,8.52
2018-02-03T03:12:23.123Z,8.32
2018-02-03T03:14:50.558Z,7.70
2018-02-03T03:17:17.997Z,6.68
2018-02-03T03:19:45.429Z,13.05
2018-02-03T03:22:12.870Z,8.60
2018-02-03T03:24:40.690Z,6.65
2018-02-03T03:27:08.126Z,8.32
2018-02-03T03:29:36.478Z,13.10
2018-02-03T03:32:03.928Z,11.20
2018-02-03T03:34:31.362Z,8.45
2018-02-03T03:36:59.198Z,8.07
2018-02-03T03:39:26.635Z,9.10
2018-02-03T03:41:54.078Z,7.85
2018-02-03T03:44:21.519Z,8.57
2018-02-03T03:46:48.949Z,9.75
2018-02-03T03:49:16.363Z,9.73
2018-02-03T03:51:43.786Z,10.05
2018-02-03T03:54:11.189Z,9.93
2018-02-03T03:56:38.613Z,11.88
2018-02-03T03:59:06.039Z,8.85
2018-02-03T04:01:33.456Z,10.48
2018-02-03T04:04:00.881Z,7.03
2018-02-03T04:06:28.289Z,8.00
2018-02-03T04:08:55.709Z,12.40
2018-02-03T04:11:23.131Z,9.73
2018-02-03T04:13:50.540Z,8.88
2018-02-03T04:16:17.946Z,9.05
2018-02-03T04:18:45.357Z,6.40
2018-02-03T04:21:12.765Z,7.62
2018-02-03T04:23:40.197Z,9.38
2018-02-03T04:26:07.600Z,6.85
2018-02-03T04:28:35.021Z,9.65
2018-02-03T04:31:02.430Z,7.00
2018-02-03T04:33:29.854Z,5.82
2018-02-03T04:35:57.266Z,6.03
2018-02-03T04:38:24.687Z,6.68
2018-02-03T04:40:52.112Z,9.90
2018-02-03T04:43:19.522Z,6.85
2018-02-03T04:45:46.922Z,4.50
2018-02-03T04:48:14.335Z,6.60
2018-02-03T04:50:41.745Z,7.18
2018-02-03T04:53:09.164Z,9.95
2018-02-03T04:55:36.980Z,9.65
2018-02-03T04:58:04.399Z,7.78
2018-02-03T05:00:31.810Z,6.75
2018-02-03T05:02:59.227Z,8.65
2018-02-03T05:05:26.633Z,9.18
2018-02-03T05:07:54.048Z,8.85
2018-02-03T05:10:21.449Z,9.57
2018-02-03T05:12:48.974Z,9.13
2018-02-03T05:15:16.400Z,7.20
2018-02-03T05:17:43.835Z,9.40
2018-02-03T05:20:11.238Z,12.98
2018-02-03T05:22:38.653Z,11.50
2018-02-03T05:25:06.458Z,8.35
2018-02-03T05:27:33.865Z,10.65
2018-02-03T05:30:01.669Z,10.95
2018-02-03T05:32:29.085Z,8.63
2018-02-03T05:34:56.889Z,11.25
2018-02-03T05:37:24.302Z,10.30
2018-02-03T05:39:52.111Z,11.82
2018-02-03T05:42:19.557Z,13.25
2018-02-03T05:44:46.965Z,10.93
2018-02-03T05:47:14.393Z,9.00
2018-02-03T05:49:41.805Z,7.80
2018-02-03T05:52:09.221Z,8.57
2018-02-03T05:54:36.634Z,8.85
2018-02-03T05:57:04.741Z,6.40
2018-02-03T05:59:32.168Z,7.47
2018-02-03T06:01:59.602Z,9.27
2018-02-03T06:04:27.029Z,6.50
2018-02-03T06:06:54.466Z,10.05
2018-02-03T06:09:21.917Z,11.50
2018-02-03T06:11:49.357Z,10.75
2018-02-03T06:14:16.781Z,10.20
2018-02-03T06:16:44.193Z,10.25
2018-02-03T06:19:11.621Z,8.32
2018-02-03T06:21:39.037Z,11.68
2018-02-03T06:24:06.861Z,8.32
2018-02-03T06:26:34.270Z,9.10
2018-02-03T06:29:01.681Z,8.52
2018-02-03T06:31:29.089Z,8.57
2018-02-03T06:33:56.510Z,10.30
2018-02-03T06:36:23.930Z,10.27
2018-02-03T06:38:51.349Z,9.43
2018-02-03T06:41:18.767Z,12.15
2018-02-03T06:43:46.202Z,12.52
2018-02-03T06:46:13.640Z,8.73
2018-02-03T06:48:41.050Z,8.55
2018-02-03T06:51:08.882Z,8.55
2018-02-03T06:53:36.307Z,7.53
2018-02-03T06:56:03.737Z,10.20
2018-02-03T06:58:31.166Z,10.18
2018-02-03T07:00:58.582Z,9.40
2018-02-03T07:03:25.997Z,8.75
2018-02-03T07:05:53.799Z,8.70
2018-02-03T07:08:21.234Z,10.30
2018-02-03T07:10:48.650Z,11.05
2018-02-03T07:13:16.090Z,10.55
2018-02-03T07:15:43.508Z,10.75
2018-02-03T07:18:10.928Z,9.60
2018-02-03T07:20:38.346Z,16.25
2018-02-03T07:23:05.752Z,9.43
2018-02-03T07:25:33.159Z,8.50
2018-02-03T07:28:00.561Z,9.73
2018-02-03T07:30:28.360Z,12.93
2018-02-03T07:32:55.768Z,8.52
2018-02-03T07:35:23.174Z,9.95
2018-02-03T07:37:50.587Z,10.77
2018-02-03T07:40:17.991Z,10.80
2018-02-03T07:42:46.249Z,14.45
2018-02-03T07:45:15.981Z,10.27
2018-02-03T07:47:44.541Z,8.57
2018-02-03T07:50:14.129Z,8.80
2018-02-03T07:52:42.401Z,9.95
2018-02-03T07:55:12.936Z,12.13
2018-02-03T07:57:41.307Z,9.00
2018-02-03T08:00:09.702Z,7.18
2018-02-03T08:02:39.974Z,13.20
2018-02-03T08:05:10.917Z,10.13
2018-02-03T08:07:39.392Z,12.65
2018-02-03T08:10:07.499Z,12.35
2018-02-03T08:12:36.110Z,10.98
2018-02-03T08:15:04.269Z,14.18
2018-02-03T08:17:32.537Z,13.35
2018-02-03T08:20:00.209Z,10.30
2018-02-03T08:25:20.101Z,10.23
2018-02-03T08:27:47.973Z,12.73
2018-02-03T08:30:16.302Z,11.50
2018-02-03T08:32:47.216Z,14.65
2018-02-03T08:35:15.457Z,12.27
2018-02-03T08:37:44.748Z,14.77
2018-02-03T08:40:13.365Z,14.10
2018-02-03T08:42:48.668Z,11.32
2018-02-03T08:45:16.933Z,14.40
2018-02-03T08:47:50.098Z,12.93
2018-02-03T08:50:37.259Z,15.50
2018-02-03T08:53:04.673Z,12.70
2018-02-03T08:55:32.139Z,16.67
2018-02-03T08:57:59.588Z,12.50
2018-02-03T09:00:27.027Z,10.55
2018-02-03T09:02:54.805Z,18.10
2018-02-03T09:05:22.217Z,13.48
2018-02-03T09:07:49.636Z,16.20
2018-02-03T09:10:17.046Z,16.50
2018-02-03T09:12:44.462Z,12.85
2018-02-03T09:15:11.890Z,13.75
2018-02-03T09:17:39.311Z,9.43
2018-02-03T09:20:06.731Z,15.07
2018-02-03T09:22:34.154Z,13.98
2018-02-03T09:25:01.569Z,12.13
2018-02-03T09:27:28.990Z,10.50
2018-02-03T09:29:56.413Z,15.10
2018-02-03T09:32:23.821Z,12.82
2018-02-03T09:34:51.382Z,10.85
2018-02-03T09:37:20.011Z,11.45
2018-02-03T09:39:47.438Z,11.02
2018-02-03T09:42:14.841Z,9.07
2018-02-03T09:44:42.272Z,9.63
2018-02-03T09:47:15.738Z,12.57
2018-02-03T09:49:43.545Z,10.30
2018-02-03T09:52:10.953Z,9.63
2018-02-03T09:54:38.787Z,10.90
2018-02-03T09:57:06.199Z,10.65
2018-02-03T09:59:33.638Z,9.98
2018-02-03T10:02:01.066Z,12.18
2018-02-03T10:04:28.517Z,8.60
2018-02-03T10:06:55.957Z,10.35
2018-02-03T10:09:23.379Z,8.25
2018-02-03T10:11:50.773Z,7.25
2018-02-03T10:14:18.185Z,4.75
2018-02-03T10:16:45.594Z,4.07
2018-02-03T10:19:13.013Z,5.43
2018-02-03T10:21:40.413Z,5.87
2018-02-03T10:24:07.829Z,4.95
2018-02-03T10:26:35.275Z,6.50
2018-02-03T10:29:02.668Z,7.40
2018-02-03T10:31:30.070Z,5.80
2018-02-03T10:33:58.675Z,6.95
2018-02-03T10:36:26.158Z,6.40
2018-02-03T10:38:53.575Z,5.60
2018-02-03T10:41:20.979Z,5.35
2018-02-03T10:43:48.391Z,7.15
2018-02-03T10:46:15.801Z,4.37
2018-02-03T10:48:43.654Z,3.55
2018-02-03T10:51:11.081Z,4.65
2018-02-03T10:53:38.501Z,3.25
2018-02-03T10:56:05.920Z,4.93
2018-02-03T10:58:33.348Z,4.20
2018-02-03T11:01:06.462Z,6.72
2018-02-03T11:03:33.882Z,6.12
2018-02-03T11:06:01.293Z,4.10
2018-02-03T11:08:28.702Z,4.72
2018-02-03T11:10:56.121Z,5.47
2018-02-03T11:13:23.933Z,6.60
2018-02-03T11:15:51.351Z,6.95
2018-02-03T11:18:18.776Z,3.35
2018-02-03T11:20:46.196Z,4.05
2018-02-03T11:23:13.614Z,3.20
2018-02-03T11:25:41.013Z,3.05
2018-02-03T11:28:08.454Z,4.62
2018-02-03T11:30:35.857Z,5.53
2018-02-03T11:33:03.276Z,3.95
2018-02-03T11:35:30.701Z,7.80
2018-02-03T11:37:58.105Z,5.03
2018-02-03T11:40:25.530Z,5.75
2018-02-03T11:42:52.946Z,4.72
2018-02-03T11:45:20.848Z,10.23
2018-02-03T11:47:48.251Z,4.43
2018-02-03T11:50:15.684Z,3.97
2018-02-03T11:52:43.080Z,3.58
2018-02-03T11:55:10.886Z,2.87
2018-02-03T11:57:38.290Z,4.47
2018-02-03T12:00:05.714Z,3.40
2018-02-03T12:02:33.129Z,3.85
2018-02-03T12:05:00.587Z,4.95
2018-02-03T12:07:28.426Z,4.50
2018-02-03T12:09:55.842Z,4.07
2018-02-03T12:12:23.396Z,4.75
2018-02-03T12:14:50.805Z,6.68
2018-02-03T12:17:18.629Z,5.00
2018-02-03T12:19:46.062Z,4.80
2018-02-03T12:22:13.483Z,6.20
2018-02-03T12:24:40.886Z,3.70
2018-02-03T12:27:08.298Z,3.92
2018-02-03T12:29:36.115Z,7.70
2018-02-03T12:32:03.537Z,4.57
2018-02-03T12:34:31.513Z,2.47
2018-02-03T12:36:58.930Z,3.08
2018-02-03T12:39:26.348Z,3.83
2018-02-03T12:41:54.521Z,3.53
2018-02-03T12:44:21.935Z,6.68
2018-02-03T12:46:49.416Z,3.67
2018-02-03T12:49:16.867Z,4.37
2018-02-03T12:51:44.283Z,3.85
2018-02-03T12:54:11.685Z,2.37
2018-02-03T12:56:39.101Z,2.60
2018-02-03T12:59:06.530Z,3.95
2018-02-03T13:01:33.937Z,3.47
2018-02-03T13:04:01.350Z,3.30
2018-02-03T13:06:28.758Z,6.22
2018-02-03T13:08:56.172Z,2.55
2018-02-03T13:11:23.977Z,3.10
2018-02-03T13:13:51.395Z,3.62
2018-02-03T13:16:19.199Z,4.37
2018-02-03T13:18:46.621Z,4.87
2018-02-03T13:21:14.324Z,1.92
2018-02-03T13:23:41.751Z,2.42
2018-02-03T13:26:11.476Z,4.45
2018-02-03T13:28:39.856Z,5.40
2018-02-03T13:31:07.941Z,3.35
2018-02-03T13:33:35.857Z,5.80
2018-02-03T13:36:03.308Z,6.25
2018-02-03T13:38:36.373Z,5.22
2018-02-03T13:41:03.813Z,3.53
2018-02-03T13:43:34.506Z,8.02
2018-02-03T13:46:06.877Z,2.85
2018-02-03T13:48:37.141Z,4.87
2018-02-03T13:51:04.672Z,3.30
2018-02-03T13:56:13.213Z,5.70
2018-02-03T13:58:42.943Z,4.35
2018-02-03T14:01:14.192Z,3.30
2018-02-03T14:03:44.564Z,4.87
2018-02-03T14:06:14.886Z,3.05
2018-02-03T14:08:47.925Z,2.45
2018-02-03T14:11:15.936Z,4.82
2018-02-03T14:13:46.374Z,2.85
2018-02-03T14:16:19.433Z,3.17
2018-02-03T14:18:50.270Z,7.35
2018-02-03T14:21:19.882Z,4.75
2018-02-03T14:23:53.058Z,4.28
2018-02-03T14:26:20.499Z,2.05
2018-02-03T14:28:47.953Z,8.98
2018-02-03T14:31:18.327Z,3.30
2018-02-03T14:33:45.745Z,5.03
2018-02-03T14:36:13.178Z,2.83
2018-02-03T14:38:40.571Z,3.90
2018-02-03T14:41:07.985Z,10.98
2018-02-03T14:43:35.390Z,3.62
2018-02-03T14:46:02.806Z,4.05
2018-02-03T14:48:30.221Z,3.97
2018-02-03T14:50:57.653Z,3.78
2018-02-03T14:53:26.114Z,6.18
2018-02-03T14:55:54.187Z,3.45
2018-02-03T14:58:22.433Z,2.95
2018-02-03T15:00:50.082Z,2.75
2018-02-03T15:03:17.938Z,6.62
2018-02-03T15:05:45.820Z,4.25
2018-02-03T15:08:16.907Z,4.05
2018-02-03T15:10:45.394Z,3.65
2018-02-03T15:13:13.014Z,2.65
2018-02-03T15:15:40.544Z,4.43
2018-02-03T15:18:08.431Z,4.90
2018-02-03T15:20:36.205Z,2.83
2018-02-03T15:23:04.801Z,1.73
2018-02-03T15:25:32.274Z,1.98
2018-02-03T15:28:11.897Z,1.48
2018-02-03T15:32:47.892Z,2.70
2018-02-03T15:35:15.334Z,3.62
2018-02-03T15:37:43.017Z,3.87
2018-02-03T15:40:10.435Z,2.55
2018-02-03T15:42:38.110Z,3.17
2018-02-03T15:45:06.322Z,4.70
2018-02-03T15:47:34.595Z,2.42
2018-02-03T15:50:01.997Z,4.47
2018-02-03T15:52:29.407Z,2.60
2018-02-03T15:54:56.817Z,4.53
2018-02-03T15:57:35.662Z,3.15
2018-02-03T16:00:10.845Z,2.60
2018-02-03T16:02:38.245Z,3.70
2018-02-03T16:05:07.415Z,3.28
2018-02-03T16:07:34.829Z,4.45
2018-02-03T16:10:02.242Z,4.37
2018-02-03T16:12:29.653Z,3.78
2018-02-03T16:14:57.473Z,8.75
2018-02-03T16:17:24.881Z,8.18
2018-02-03T16:19:52.686Z,7.90
2018-02-03T16:22:20.093Z,4.93
2018-02-03T16:24:47.898Z,5.62
2018-02-03T16:27:15.314Z,7.20
2018-02-03T16:29:42.722Z,4.55
2018-02-03T16:32:10.142Z,8.43
2018-02-03T16:34:37.549Z,3.28
2018-02-03T16:37:05.932Z,7.50
2018-02-03T16:39:33.326Z,4.47
2018-02-03T16:42:00.782Z,5.70
2018-02-03T16:44:28.221Z,7.65
2018-02-03T16:46:56.034Z,3.60
2018-02-03T16:49:23.432Z,4.40
2018-02-03T16:51:50.857Z,3.05
2018-02-03T16:54:18.275Z,3.85
2018-02-03T16:56:45.690Z,4.35
2018-02-03T16:59:13.101Z,2.75
2018-02-03T17:01:40.525Z,3.28
2018-02-03T17:04:08.777Z,3.47
2018-02-03T17:06:36.199Z,4.80
2018-02-03T17:09:03.612Z,3.72
2018-02-03T17:11:31.447Z,8.32
2018-02-03T17:13:58.882Z,3.97
2018-02-03T17:16:26.330Z,5.30
2018-02-03T17:18:53.741Z,10.13
2018-02-03T17:21:21.165Z,2.75
2018-02-03T17:23:48.573Z,4.72
2018-02-03T17:26:15.986Z,3.72
2018-02-03T17:28:43.386Z,4.62
2018-02-03T17:31:10.810Z,5.95
2018-02-03T17:33:38.217Z,7.65
2018-02-03T17:36:05.634Z,4.93
2018-02-03T17:38:39.141Z,10.23
2018-02-03T17:41:06.554Z,3.17
2018-02-03T17:43:33.987Z,4.00
2018-02-03T17:46:07.059Z,5.47
2018-02-03T17:48:34.461Z,4.50
2018-02-03T17:51:01.879Z,4.82
2018-02-03T17:53:31.815Z,5.72
2018-02-03T17:56:04.783Z,5.80
2018-02-03T17:58:32.194Z,6.45
2018-02-03T18:01:00.045Z,6.43
2018-02-03T18:03:27.494Z,5.87
2018-02-03T18:05:54.871Z,8.95
2018-02-03T18:08:22.684Z,6.12
2018-02-03T18:10:50.101Z,7.00
2018-02-03T18:13:18.698Z,7.80
2018-02-03T18:16:05.729Z,7.55
2018-02-03T18:18:33.145Z,8.88
2018-02-03T18:26:30.133Z,5.65
2018-02-03T18:28:59.092Z,3.67
2018-02-03T19:11:08.133Z,2.92
2018-02-03T19:42:23.558Z,4.43
2018-02-03T19:44:51.451Z,4.40
2018-02-03T19:47:20.829Z,4.70
2018-02-03T19:49:49.328Z,6.70
2018-02-03T19:52:19.080Z,12.18
2018-02-03T19:54:47.325Z,3.83
2018-02-03T19:57:16.149Z,6.70
2018-02-03T19:59:46.221Z,3.40
2018-02-03T20:02:17.655Z,4.37
2018-02-03T20:04:47.243Z,4.53
2018-02-03T20:07:15.708Z,4.72
2018-02-03T20:09:49.627Z,5.35
2018-02-03T20:12:19.910Z,8.90
2018-02-03T20:14:48.682Z,11.25
2018-02-03T20:17:17.271Z,7.65
2018-02-03T20:19:44.812Z,7.40
2018-02-03T20:22:12.714Z,7.07
2018-02-03T20:24:40.260Z,9.27
2018-02-03T20:27:08.207Z,11.23
2018-02-03T20:29:36.106Z,6.85
2018-02-03T20:32:10.213Z,5.25
2018-02-03T20:34:40.188Z,7.68
2018-02-03T20:37:08.607Z,4.68
2018-02-03T20:39:37.453Z,7.10
2018-02-03T20:42:14.205Z,6.47
2018-02-03T20:44:44.439Z,7.57
2018-02-03T20:47:14.831Z,7.15
2018-02-03T20:49:43.401Z,8.23
2018-02-03T20:55:37.845Z,10.48
2018-02-03T21:01:21.849Z,5.12
2018-02-03T21:03:50.695Z,4.45
2018-02-03T21:06:24.833Z,7.07
2018-02-03T21:09:01.224Z,4.95
2018-02-03T23:15:38.217Z,8.70
2018-02-03T23:21:11.954Z,9.18
2018-02-03T23:23:46.439Z,8.77
2018-02-03T23:26:27.737Z,11.25
